sensor_id;sensor_type;location;lat;lon;timestamp;P1;durP1;ratioP1;P2;durP2;ratioP2
72974;SDS011;61166;54.228;37.632;2023-09-18T00:02:00;336.48;;;138.30;;
72974;SDS011;61166;54.228;37.632;2023-09-18T00:04:26;325.80;;;134.50;;
72974;SDS011;61166;54.228;37.632;2023-09-18T00:06:52;333.45;;;136.52;;
72974;SDS011;61166;54.228;37.632;2023-09-18T00:09:19;338.20;;;137.18;;
72974;SDS011;61166;54.228;37.632;2023-09-18T00:11:45;331.33;;;136.02;;
72974;SDS011;61166;54.228;37.632;2023-09-18T00:14:12;334.08;;;136.65;;
72974;SDS011;61166;54.228;37.632;2023-09-18T00:16:38;332.53;;;135.50;;
72974;SDS011;61166;54.228;37.632;2023-09-18T00:19:23;325.13;;;133.98;;
72974;SDS011;61166;54.228;37.632;2023-09-18T00:21:50;318.83;;;133.20;;
72974;SDS011;61166;54.228;37.632;2023-09-18T00:24:16;321.00;;;132.60;;
72974;SDS011;61166;54.228;37.632;2023-09-18T00:26:43;320.33;;;131.43;;
72974;SDS011;61166;54.228;37.632;2023-09-18T00:29:10;324.97;;;134.00;;
72974;SDS011;61166;54.228;37.632;2023-09-18T00:31:36;324.90;;;133.93;;
72974;SDS011;61166;54.228;37.632;2023-09-18T00:34:03;327.52;;;136.00;;
72974;SDS011;61166;54.228;37.632;2023-09-18T00:36:29;326.27;;;135.52;;
72974;SDS011;61166;54.228;37.632;2023-09-18T00:38:56;324.35;;;134.05;;
72974;SDS011;61166;54.228;37.632;2023-09-18T00:41:22;327.10;;;135.10;;
72974;SDS011;61166;54.228;37.632;2023-09-18T00:43:48;321.33;;;134.00;;
72974;SDS011;61166;54.228;37.632;2023-09-18T00:46:15;324.67;;;135.38;;
72974;SDS011;61166;54.228;37.632;2023-09-18T00:48:42;326.70;;;134.75;;
72974;SDS011;61166;54.228;37.632;2023-09-18T00:51:08;325.50;;;136.02;;
72974;SDS011;61166;54.228;37.632;2023-09-18T00:53:35;328.27;;;137.33;;
72974;SDS011;61166;54.228;37.632;2023-09-18T00:56:01;326.27;;;134.48;;
72974;SDS011;61166;54.228;37.632;2023-09-18T00:58:29;331.65;;;136.57;;
72974;SDS011;61166;54.228;37.632;2023-09-18T01:00:56;321.40;;;133.93;;
72974;SDS011;61166;54.228;37.632;2023-09-18T01:03:23;324.05;;;134.05;;
72974;SDS011;61166;54.228;37.632;2023-09-18T01:05:50;321.40;;;132.87;;
72974;SDS011;61166;54.228;37.632;2023-09-18T01:08:17;326.42;;;134.02;;
72974;SDS011;61166;54.228;37.632;2023-09-18T01:10:47;333.33;;;136.55;;
72974;SDS011;61166;54.228;37.632;2023-09-18T01:13:14;339.98;;;137.60;;
72974;SDS011;61166;54.228;37.632;2023-09-18T01:15:44;339.20;;;138.10;;
72974;SDS011;61166;54.228;37.632;2023-09-18T01:18:14;332.60;;;136.50;;
72974;SDS011;61166;54.228;37.632;2023-09-18T01:20:40;336.48;;;137.63;;
72974;SDS011;61166;54.228;37.632;2023-09-18T01:23:07;340.85;;;139.07;;
72974;SDS011;61166;54.228;37.632;2023-09-18T01:25:33;340.80;;;138.63;;
72974;SDS011;61166;54.228;37.632;2023-09-18T01:28:00;356.85;;;143.05;;
72974;SDS011;61166;54.228;37.632;2023-09-18T01:30:26;355.37;;;142.30;;
72974;SDS011;61166;54.228;37.632;2023-09-18T01:32:53;342.45;;;140.57;;
72974;SDS011;61166;54.228;37.632;2023-09-18T01:35:20;354.70;;;143.68;;
72974;SDS011;61166;54.228;37.632;2023-09-18T01:37:47;362.88;;;144.90;;
72974;SDS011;61166;54.228;37.632;2023-09-18T01:40:13;399.75;;;153.65;;
72974;SDS011;61166;54.228;37.632;2023-09-18T01:42:40;389.87;;;150.70;;
72974;SDS011;61166;54.228;37.632;2023-09-18T01:45:07;352.00;;;141.27;;
72974;SDS011;61166;54.228;37.632;2023-09-18T01:47:34;339.98;;;138.95;;
72974;SDS011;61166;54.228;37.632;2023-09-18T01:50:02;342.23;;;138.90;;
72974;SDS011;61166;54.228;37.632;2023-09-18T01:52:29;336.40;;;139.00;;
72974;SDS011;61166;54.228;37.632;2023-09-18T01:54:55;340.27;;;137.63;;
72974;SDS011;61166;54.228;37.632;2023-09-18T01:57:22;334.42;;;137.65;;
72974;SDS011;61166;54.228;37.632;2023-09-18T01:59:48;337.25;;;137.85;;
72974;SDS011;61166;54.228;37.632;2023-09-18T02:02:15;332.27;;;136.43;;
72974;SDS011;61166;54.228;37.632;2023-09-18T02:05:02;334.30;;;136.73;;
72974;SDS011;61166;54.228;37.632;2023-09-18T02:07:35;334.30;;;137.20;;
72974;SDS011;61166;54.228;37.632;2023-09-18T02:10:01;338.95;;;137.85;;
72974;SDS011;61166;54.228;37.632;2023-09-18T02:12:28;339.55;;;138.90;;
72974;SDS011;61166;54.228;37.632;2023-09-18T02:14:54;341.85;;;138.93;;
72974;SDS011;61166;54.228;37.632;2023-09-18T02:17:21;348.55;;;141.48;;
72974;SDS011;61166;54.228;37.632;2023-09-18T02:19:47;416.03;;;159.83;;
72974;SDS011;61166;54.228;37.632;2023-09-18T02:22:14;375.58;;;149.35;;
72974;SDS011;61166;54.228;37.632;2023-09-18T02:24:40;387.33;;;151.85;;
72974;SDS011;61166;54.228;37.632;2023-09-18T02:27:06;363.17;;;145.52;;
72974;SDS011;61166;54.228;37.632;2023-09-18T02:29:33;393.27;;;151.68;;
72974;SDS011;61166;54.228;37.632;2023-09-18T02:31:59;397.37;;;152.87;;
72974;SDS011;61166;54.228;37.632;2023-09-18T02:34:26;334.15;;;137.93;;
72974;SDS011;61166;54.228;37.632;2023-09-18T02:36:53;325.20;;;135.65;;
72974;SDS011;61166;54.228;37.632;2023-09-18T02:39:19;334.73;;;137.88;;
72974;SDS011;61166;54.228;37.632;2023-09-18T02:41:46;336.65;;;139.13;;
72974;SDS011;61166;54.228;37.632;2023-09-18T02:44:12;338.60;;;139.27;;
72974;SDS011;61166;54.228;37.632;2023-09-18T02:46:39;335.98;;;137.13;;
72974;SDS011;61166;54.228;37.632;2023-09-18T02:49:05;335.00;;;137.52;;
72974;SDS011;61166;54.228;37.632;2023-09-18T02:51:32;327.85;;;134.80;;
72974;SDS011;61166;54.228;37.632;2023-09-18T02:53:58;329.45;;;135.80;;
72974;SDS011;61166;54.228;37.632;2023-09-18T02:56:25;327.90;;;134.57;;
72974;SDS011;61166;54.228;37.632;2023-09-18T02:58:51;327.30;;;132.77;;
72974;SDS011;61166;54.228;37.632;2023-09-18T03:01:18;326.08;;;134.60;;
72974;SDS011;61166;54.228;37.632;2023-09-18T03:03:44;318.65;;;132.13;;
72974;SDS011;61166;54.228;37.632;2023-09-18T03:06:11;320.10;;;132.55;;
72974;SDS011;61166;54.228;37.632;2023-09-18T03:08:37;318.63;;;131.90;;
72974;SDS011;61166;54.228;37.632;2023-09-18T03:11:10;317.58;;;130.35;;
72974;SDS011;61166;54.228;37.632;2023-09-18T03:13:37;327.85;;;134.45;;
72974;SDS011;61166;54.228;37.632;2023-09-18T03:16:03;324.92;;;132.80;;
72974;SDS011;61166;54.228;37.632;2023-09-18T03:18:30;322.38;;;132.57;;
72974;SDS011;61166;54.228;37.632;2023-09-18T03:20:56;329.43;;;133.43;;
72974;SDS011;61166;54.228;37.632;2023-09-18T03:23:23;343.50;;;136.70;;
72974;SDS011;61166;54.228;37.632;2023-09-18T03:25:49;343.10;;;138.15;;
72974;SDS011;61166;54.228;37.632;2023-09-18T03:28:17;338.58;;;135.88;;
72974;SDS011;61166;54.228;37.632;2023-09-18T03:30:44;336.95;;;134.73;;
72974;SDS011;61166;54.228;37.632;2023-09-18T03:33:10;335.17;;;135.20;;
72974;SDS011;61166;54.228;37.632;2023-09-18T03:35:50;330.85;;;133.00;;
72974;SDS011;61166;54.228;37.632;2023-09-18T03:38:16;338.25;;;135.57;;
72974;SDS011;61166;54.228;37.632;2023-09-18T03:40:43;408.55;;;152.32;;
72974;SDS011;61166;54.228;37.632;2023-09-18T03:43:10;365.27;;;141.82;;
72974;SDS011;61166;54.228;37.632;2023-09-18T03:45:36;363.20;;;141.57;;
72974;SDS011;61166;54.228;37.632;2023-09-18T03:48:03;371.83;;;144.27;;
72974;SDS011;61166;54.228;37.632;2023-09-18T03:50:29;365.27;;;144.30;;
72974;SDS011;61166;54.228;37.632;2023-09-18T03:52:57;361.85;;;142.38;;
72974;SDS011;61166;54.228;37.632;2023-09-18T03:55:24;402.50;;;152.43;;
72974;SDS011;61166;54.228;37.632;2023-09-18T03:57:51;342.50;;;135.37;;
72974;SDS011;61166;54.228;37.632;2023-09-18T04:00:18;339.67;;;134.20;;
72974;SDS011;61166;54.228;37.632;2023-09-18T04:02:44;337.45;;;134.73;;
72974;SDS011;61166;54.228;37.632;2023-09-18T04:05:11;334.15;;;130.68;;
72974;SDS011;61166;54.228;37.632;2023-09-18T04:07:37;326.90;;;130.02;;
72974;SDS011;61166;54.228;37.632;2023-09-18T04:10:04;329.27;;;131.07;;
72974;SDS011;61166;54.228;37.632;2023-09-18T04:12:31;341.63;;;133.95;;
72974;SDS011;61166;54.228;37.632;2023-09-18T04:14:57;356.85;;;136.30;;
72974;SDS011;61166;54.228;37.632;2023-09-18T04:17:24;366.92;;;139.30;;
72974;SDS011;61166;54.228;37.632;2023-09-18T04:19:50;404.63;;;149.43;;
72974;SDS011;61166;54.228;37.632;2023-09-18T04:22:17;442.93;;;160.03;;
72974;SDS011;61166;54.228;37.632;2023-09-18T04:24:43;387.88;;;142.52;;
72974;SDS011;61166;54.228;37.632;2023-09-18T04:27:10;388.25;;;145.90;;
72974;SDS011;61166;54.228;37.632;2023-09-18T04:29:36;338.67;;;132.32;;
72974;SDS011;61166;54.228;37.632;2023-09-18T04:32:03;335.55;;;128.68;;
72974;SDS011;61166;54.228;37.632;2023-09-18T04:34:30;308.47;;;123.37;;
72974;SDS011;61166;54.228;37.632;2023-09-18T04:36:56;316.83;;;124.22;;
72974;SDS011;61166;54.228;37.632;2023-09-18T04:39:23;315.42;;;125.10;;
72974;SDS011;61166;54.228;37.632;2023-09-18T04:41:49;306.17;;;122.68;;
72974;SDS011;61166;54.228;37.632;2023-09-18T04:44:16;305.92;;;123.53;;
72974;SDS011;61166;54.228;37.632;2023-09-18T04:46:42;307.70;;;122.70;;
72974;SDS011;61166;54.228;37.632;2023-09-18T04:49:09;301.70;;;122.10;;
72974;SDS011;61166;54.228;37.632;2023-09-18T04:51:35;307.35;;;124.38;;
72974;SDS011;61166;54.228;37.632;2023-09-18T04:54:02;305.27;;;122.10;;
72974;SDS011;61166;54.228;37.632;2023-09-18T04:56:28;310.08;;;124.35;;
72974;SDS011;61166;54.228;37.632;2023-09-18T04:58:55;317.53;;;125.17;;
72974;SDS011;61166;54.228;37.632;2023-09-18T05:01:21;307.92;;;123.25;;
72974;SDS011;61166;54.228;37.632;2023-09-18T05:03:48;310.73;;;125.75;;
72974;SDS011;61166;54.228;37.632;2023-09-18T05:06:15;317.05;;;125.63;;
72974;SDS011;61166;54.228;37.632;2023-09-18T05:08:41;321.30;;;126.50;;
72974;SDS011;61166;54.228;37.632;2023-09-18T05:11:08;321.27;;;126.97;;
72974;SDS011;61166;54.228;37.632;2023-09-18T05:13:37;326.95;;;126.32;;
72974;SDS011;61166;54.228;37.632;2023-09-18T05:16:03;328.77;;;127.68;;
72974;SDS011;61166;54.228;37.632;2023-09-18T05:18:30;368.85;;;136.30;;
72974;SDS011;61166;54.228;37.632;2023-09-18T05:20:56;407.98;;;144.90;;
72974;SDS011;61166;54.228;37.632;2023-09-18T05:23:23;414.53;;;147.60;;
72974;SDS011;61166;54.228;37.632;2023-09-18T05:25:49;351.33;;;132.20;;
72974;SDS011;61166;54.228;37.632;2023-09-18T05:28:16;356.25;;;134.10;;
72974;SDS011;61166;54.228;37.632;2023-09-18T05:30:42;323.88;;;126.43;;
72974;SDS011;61166;54.228;37.632;2023-09-18T05:33:09;318.67;;;125.65;;
72974;SDS011;61166;54.228;37.632;2023-09-18T05:35:39;322.20;;;126.30;;
72974;SDS011;61166;54.228;37.632;2023-09-18T05:38:06;327.73;;;127.55;;
72974;SDS011;61166;54.228;37.632;2023-09-18T05:40:32;328.27;;;128.00;;
72974;SDS011;61166;54.228;37.632;2023-09-18T05:42:59;325.55;;;127.18;;
72974;SDS011;61166;54.228;37.632;2023-09-18T05:45:25;338.63;;;130.40;;
72974;SDS011;61166;54.228;37.632;2023-09-18T05:47:52;345.50;;;132.17;;
72974;SDS011;61166;54.228;37.632;2023-09-18T05:50:19;375.80;;;138.60;;
72974;SDS011;61166;54.228;37.632;2023-09-18T05:52:47;355.80;;;135.32;;
72974;SDS011;61166;54.228;37.632;2023-09-18T05:55:14;374.85;;;140.73;;
72974;SDS011;61166;54.228;37.632;2023-09-18T05:57:40;390.10;;;142.13;;
72974;SDS011;61166;54.228;37.632;2023-09-18T06:00:07;411.57;;;148.37;;
72974;SDS011;61166;54.228;37.632;2023-09-18T06:02:33;408.67;;;146.10;;
72974;SDS011;61166;54.228;37.632;2023-09-18T06:05:00;390.05;;;143.57;;
72974;SDS011;61166;54.228;37.632;2023-09-18T06:07:27;383.77;;;141.98;;
72974;SDS011;61166;54.228;37.632;2023-09-18T06:09:53;393.70;;;145.52;;
72974;SDS011;61166;54.228;37.632;2023-09-18T06:12:20;376.50;;;141.03;;
72974;SDS011;61166;54.228;37.632;2023-09-18T06:14:47;324.35;;;130.07;;
72974;SDS011;61166;54.228;37.632;2023-09-18T06:17:13;304.10;;;122.55;;
72974;SDS011;61166;54.228;37.632;2023-09-18T06:19:40;291.67;;;119.35;;
72974;SDS011;61166;54.228;37.632;2023-09-18T06:22:07;300.70;;;121.68;;
72974;SDS011;61166;54.228;37.632;2023-09-18T06:24:34;305.43;;;120.63;;
72974;SDS011;61166;54.228;37.632;2023-09-18T06:27:00;300.30;;;119.38;;
72974;SDS011;61166;54.228;37.632;2023-09-18T06:29:27;315.38;;;123.68;;
72974;SDS011;61166;54.228;37.632;2023-09-18T06:31:53;359.77;;;132.75;;
72974;SDS011;61166;54.228;37.632;2023-09-18T06:34:20;352.52;;;132.48;;
72974;SDS011;61166;54.228;37.632;2023-09-18T06:36:46;351.27;;;131.87;;
72974;SDS011;61166;54.228;37.632;2023-09-18T06:39:13;345.20;;;130.80;;
72974;SDS011;61166;54.228;37.632;2023-09-18T06:41:39;357.65;;;133.20;;
72974;SDS011;61166;54.228;37.632;2023-09-18T06:44:06;357.15;;;132.32;;
72974;SDS011;61166;54.228;37.632;2023-09-18T06:46:32;346.67;;;131.20;;
72974;SDS011;61166;54.228;37.632;2023-09-18T06:48:59;324.53;;;125.33;;
72974;SDS011;61166;54.228;37.632;2023-09-18T06:51:26;326.98;;;126.60;;
72974;SDS011;61166;54.228;37.632;2023-09-18T06:54:08;332.98;;;128.13;;
72974;SDS011;61166;54.228;37.632;2023-09-18T06:56:35;329.38;;;127.35;;
72974;SDS011;61166;54.228;37.632;2023-09-18T06:59:01;320.52;;;125.20;;
72974;SDS011;61166;54.228;37.632;2023-09-18T07:01:28;324.20;;;125.33;;
72974;SDS011;61166;54.228;37.632;2023-09-18T07:03:54;322.33;;;124.93;;
72974;SDS011;61166;54.228;37.632;2023-09-18T07:06:21;324.23;;;125.63;;
72974;SDS011;61166;54.228;37.632;2023-09-18T07:08:47;325.13;;;125.45;;
72974;SDS011;61166;54.228;37.632;2023-09-18T07:11:14;335.98;;;127.65;;
72974;SDS011;61166;54.228;37.632;2023-09-18T07:13:40;348.80;;;130.20;;
72974;SDS011;61166;54.228;37.632;2023-09-18T07:16:07;369.67;;;135.88;;
72974;SDS011;61166;54.228;37.632;2023-09-18T07:18:33;382.98;;;137.55;;
72974;SDS011;61166;54.228;37.632;2023-09-18T07:21:00;390.80;;;139.98;;
72974;SDS011;61166;54.228;37.632;2023-09-18T07:23:26;400.30;;;141.43;;
72974;SDS011;61166;54.228;37.632;2023-09-18T07:25:53;428.63;;;148.17;;
72974;SDS011;61166;54.228;37.632;2023-09-18T07:28:19;405.63;;;143.50;;
72974;SDS011;61166;54.228;37.632;2023-09-18T07:30:46;419.45;;;147.43;;
72974;SDS011;61166;54.228;37.632;2023-09-18T07:33:13;410.42;;;144.88;;
72974;SDS011;61166;54.228;37.632;2023-09-18T07:35:40;416.95;;;144.57;;
72974;SDS011;61166;54.228;37.632;2023-09-18T07:38:06;475.23;;;161.67;;
72974;SDS011;61166;54.228;37.632;2023-09-18T07:40:33;448.23;;;154.18;;
72974;SDS011;61166;54.228;37.632;2023-09-18T07:42:59;458.88;;;156.35;;
72974;SDS011;61166;54.228;37.632;2023-09-18T07:45:26;422.38;;;147.98;;
72974;SDS011;61166;54.228;37.632;2023-09-18T07:47:52;443.48;;;151.20;;
72974;SDS011;61166;54.228;37.632;2023-09-18T07:50:19;773.20;;;275.03;;
72974;SDS011;61166;54.228;37.632;2023-09-18T07:52:45;753.35;;;264.27;;
72974;SDS011;61166;54.228;37.632;2023-09-18T07:55:12;887.30;;;313.05;;
72974;SDS011;61166;54.228;37.632;2023-09-18T07:57:38;819.33;;;286.77;;
72974;SDS011;61166;54.228;37.632;2023-09-18T08:00:05;722.78;;;254.75;;
72974;SDS011;61166;54.228;37.632;2023-09-18T08:02:31;693.07;;;242.60;;
72974;SDS011;61166;54.228;37.632;2023-09-18T08:04:58;667.38;;;233.35;;
72974;SDS011;61166;54.228;37.632;2023-09-18T08:07:24;664.55;;;233.07;;
72974;SDS011;61166;54.228;37.632;2023-09-18T08:09:51;651.72;;;227.05;;
72974;SDS011;61166;54.228;37.632;2023-09-18T08:12:17;652.92;;;228.75;;
72974;SDS011;61166;54.228;37.632;2023-09-18T08:14:44;668.20;;;233.83;;
72974;SDS011;61166;54.228;37.632;2023-09-18T08:17:10;681.10;;;237.25;;
72974;SDS011;61166;54.228;37.632;2023-09-18T08:19:37;631.55;;;222.80;;
72974;SDS011;61166;54.228;37.632;2023-09-18T08:22:03;684.60;;;237.13;;
72974;SDS011;61166;54.228;37.632;2023-09-18T08:24:31;638.58;;;221.15;;
72974;SDS011;61166;54.228;37.632;2023-09-18T08:26:57;563.60;;;195.17;;
72974;SDS011;61166;54.228;37.632;2023-09-18T08:29:23;580.67;;;201.55;;
72974;SDS011;61166;54.228;37.632;2023-09-18T08:31:50;635.90;;;220.95;;
72974;SDS011;61166;54.228;37.632;2023-09-18T08:34:17;673.67;;;231.13;;
72974;SDS011;61166;54.228;37.632;2023-09-18T08:36:43;656.28;;;226.77;;
72974;SDS011;61166;54.228;37.632;2023-09-18T08:39:09;533.67;;;182.40;;
72974;SDS011;61166;54.228;37.632;2023-09-18T08:41:38;534.05;;;181.63;;
72974;SDS011;61166;54.228;37.632;2023-09-18T08:44:04;544.05;;;189.75;;
72974;SDS011;61166;54.228;37.632;2023-09-18T08:46:33;537.38;;;185.98;;
72974;SDS011;61166;54.228;37.632;2023-09-18T08:49:00;541.45;;;186.00;;
72974;SDS011;61166;54.228;37.632;2023-09-18T08:51:27;553.60;;;190.50;;
72974;SDS011;61166;54.228;37.632;2023-09-18T08:53:54;600.22;;;209.25;;
72974;SDS011;61166;54.228;37.632;2023-09-18T08:56:21;591.20;;;205.38;;
72974;SDS011;61166;54.228;37.632;2023-09-18T08:58:48;541.85;;;185.65;;
72974;SDS011;61166;54.228;37.632;2023-09-18T09:01:14;486.95;;;165.45;;
72974;SDS011;61166;54.228;37.632;2023-09-18T09:03:41;439.93;;;152.37;;
72974;SDS011;61166;54.228;37.632;2023-09-18T09:06:09;435.83;;;150.52;;
72974;SDS011;61166;54.228;37.632;2023-09-18T09:08:35;435.67;;;151.50;;
72974;SDS011;61166;54.228;37.632;2023-09-18T09:11:03;435.10;;;151.20;;
72974;SDS011;61166;54.228;37.632;2023-09-18T09:13:29;401.75;;;145.43;;
72974;SDS011;61166;54.228;37.632;2023-09-18T09:16:11;392.33;;;143.63;;
72974;SDS011;61166;54.228;37.632;2023-09-18T09:18:47;369.90;;;137.88;;
72974;SDS011;61166;54.228;37.632;2023-09-18T09:21:13;358.80;;;136.82;;
72974;SDS011;61166;54.228;37.632;2023-09-18T09:23:46;353.58;;;135.38;;
72974;SDS011;61166;54.228;37.632;2023-09-18T09:26:14;336.92;;;132.43;;
72974;SDS011;61166;54.228;37.632;2023-09-18T09:28:42;335.27;;;130.97;;
72974;SDS011;61166;54.228;37.632;2023-09-18T09:31:09;349.98;;;133.73;;
72974;SDS011;61166;54.228;37.632;2023-09-18T09:33:36;361.25;;;136.43;;
72974;SDS011;61166;54.228;37.632;2023-09-18T09:36:06;389.45;;;142.50;;
72974;SDS011;61166;54.228;37.632;2023-09-18T09:38:33;480.80;;;165.38;;
72974;SDS011;61166;54.228;37.632;2023-09-18T09:41:00;412.23;;;148.27;;
72974;SDS011;61166;54.228;37.632;2023-09-18T09:43:28;523.20;;;178.48;;
72974;SDS011;61166;54.228;37.632;2023-09-18T09:46:02;370.55;;;139.02;;
72974;SDS011;61166;54.228;37.632;2023-09-18T09:48:28;503.30;;;172.65;;
72974;SDS011;61166;54.228;37.632;2023-09-18T09:50:57;369.73;;;138.77;;
72974;SDS011;61166;54.228;37.632;2023-09-18T09:53:42;362.87;;;136.93;;
72974;SDS011;61166;54.228;37.632;2023-09-18T09:56:09;376.08;;;138.85;;
72974;SDS011;61166;54.228;37.632;2023-09-18T09:58:35;374.63;;;137.93;;
72974;SDS011;61166;54.228;37.632;2023-09-18T10:01:05;368.48;;;137.98;;
72974;SDS011;61166;54.228;37.632;2023-09-18T10:03:32;379.27;;;139.10;;
72974;SDS011;61166;54.228;37.632;2023-09-18T10:05:59;379.87;;;139.93;;
72974;SDS011;61166;54.228;37.632;2023-09-18T10:08:26;393.67;;;142.18;;
72974;SDS011;61166;54.228;37.632;2023-09-18T10:10:55;393.85;;;142.57;;
72974;SDS011;61166;54.228;37.632;2023-09-18T10:13:31;407.58;;;144.43;;
72974;SDS011;61166;54.228;37.632;2023-09-18T10:15:59;416.98;;;148.18;;
72974;SDS011;61166;54.228;37.632;2023-09-18T10:18:32;433.03;;;150.20;;
72974;SDS011;61166;54.228;37.632;2023-09-18T10:21:06;438.77;;;150.70;;
72974;SDS011;61166;54.228;37.632;2023-09-18T10:23:44;483.20;;;163.52;;
72974;SDS011;61166;54.228;37.632;2023-09-18T10:26:13;434.50;;;150.40;;
72974;SDS011;61166;54.228;37.632;2023-09-18T10:28:40;442.45;;;152.30;;
72974;SDS011;61166;54.228;37.632;2023-09-18T10:31:06;462.37;;;155.87;;
72974;SDS011;61166;54.228;37.632;2023-09-18T10:33:33;491.08;;;166.35;;
72974;SDS011;61166;54.228;37.632;2023-09-18T10:36:00;434.92;;;151.85;;
72974;SDS011;61166;54.228;37.632;2023-09-18T10:38:27;446.33;;;153.27;;
72974;SDS011;61166;54.228;37.632;2023-09-18T10:40:54;506.98;;;173.77;;
72974;SDS011;61166;54.228;37.632;2023-09-18T10:43:22;425.53;;;148.40;;
72974;SDS011;61166;54.228;37.632;2023-09-18T10:45:48;423.15;;;147.48;;
72974;SDS011;61166;54.228;37.632;2023-09-18T10:48:15;427.90;;;149.18;;
72974;SDS011;61166;54.228;37.632;2023-09-18T10:50:42;440.13;;;150.48;;
72974;SDS011;61166;54.228;37.632;2023-09-18T10:53:09;424.73;;;148.27;;
72974;SDS011;61166;54.228;37.632;2023-09-18T10:55:35;428.20;;;148.73;;
72974;SDS011;61166;54.228;37.632;2023-09-18T10:58:02;428.05;;;148.75;;
72974;SDS011;61166;54.228;37.632;2023-09-18T11:00:29;430.48;;;150.52;;
72974;SDS011;61166;54.228;37.632;2023-09-18T11:03:13;450.13;;;153.52;;
72974;SDS011;61166;54.228;37.632;2023-09-18T11:05:40;465.27;;;158.27;;
72974;SDS011;61166;54.228;37.632;2023-09-18T11:10:54;457.80;;;161.68;;
72974;SDS011;61166;54.228;37.632;2023-09-18T11:13:31;462.58;;;159.63;;
72974;SDS011;61166;54.228;37.632;2023-09-18T11:16:01;450.88;;;154.20;;
72974;SDS011;61166;54.228;37.632;2023-09-18T11:18:32;463.25;;;157.43;;
72974;SDS011;61166;54.228;37.632;2023-09-18T11:21:11;458.03;;;155.43;;
72974;SDS011;61166;54.228;37.632;2023-09-18T11:23:38;466.15;;;158.40;;
72974;SDS011;61166;54.228;37.632;2023-09-18T11:26:07;450.15;;;154.23;;
72974;SDS011;61166;54.228;37.632;2023-09-18T11:28:33;459.98;;;156.90;;
72974;SDS011;61166;54.228;37.632;2023-09-18T11:31:00;463.88;;;157.77;;
72974;SDS011;61166;54.228;37.632;2023-09-18T11:33:37;486.00;;;165.47;;
72974;SDS011;61166;54.228;37.632;2023-09-18T11:36:14;496.10;;;168.50;;
72974;SDS011;61166;54.228;37.632;2023-09-18T11:38:55;508.38;;;173.55;;
72974;SDS011;61166;54.228;37.632;2023-09-18T11:41:26;517.85;;;178.65;;
72974;SDS011;61166;54.228;37.632;2023-09-18T11:46:39;600.40;;;208.07;;
72974;SDS011;61166;54.228;37.632;2023-09-18T11:49:07;516.95;;;179.43;;
72974;SDS011;61166;54.228;37.632;2023-09-18T11:51:33;518.30;;;179.82;;
72974;SDS011;61166;54.228;37.632;2023-09-18T11:54:00;531.53;;;186.38;;
72974;SDS011;61166;54.228;37.632;2023-09-18T11:56:27;527.65;;;183.43;;
72974;SDS011;61166;54.228;37.632;2023-09-18T11:58:53;529.63;;;182.33;;
72974;SDS011;61166;54.228;37.632;2023-09-18T12:01:20;552.97;;;195.00;;
72974;SDS011;61166;54.228;37.632;2023-09-18T12:03:52;562.45;;;198.93;;
72974;SDS011;61166;54.228;37.632;2023-09-18T12:06:18;561.72;;;198.25;;
72974;SDS011;61166;54.228;37.632;2023-09-18T12:08:45;556.05;;;195.45;;
72974;SDS011;61166;54.228;37.632;2023-09-18T12:11:12;562.60;;;198.03;;
72974;SDS011;61166;54.228;37.632;2023-09-18T12:13:38;558.20;;;196.57;;
72974;SDS011;61166;54.228;37.632;2023-09-18T12:16:05;551.97;;;193.80;;
72974;SDS011;61166;54.228;37.632;2023-09-18T12:18:32;554.55;;;194.90;;
72974;SDS011;61166;54.228;37.632;2023-09-18T12:20:59;540.72;;;187.45;;
72974;SDS011;61166;54.228;37.632;2023-09-18T12:23:25;547.00;;;191.63;;
72974;SDS011;61166;54.228;37.632;2023-09-18T12:25:57;559.95;;;196.80;;
72974;SDS011;61166;54.228;37.632;2023-09-18T12:28:24;580.10;;;204.57;;
72974;SDS011;61166;54.228;37.632;2023-09-18T12:30:51;555.28;;;194.32;;
72974;SDS011;61166;54.228;37.632;2023-09-18T12:33:18;566.17;;;196.77;;
72974;SDS011;61166;54.228;37.632;2023-09-18T12:35:44;624.60;;;218.83;;
72974;SDS011;61166;54.228;37.632;2023-09-18T12:38:15;574.67;;;201.32;;
72974;SDS011;61166;54.228;37.632;2023-09-18T12:40:42;530.58;;;185.25;;
72974;SDS011;61166;54.228;37.632;2023-09-18T12:43:08;533.25;;;184.60;;
72974;SDS011;61166;54.228;37.632;2023-09-18T12:45:35;511.58;;;177.70;;
72974;SDS011;61166;54.228;37.632;2023-09-18T12:48:01;576.73;;;201.77;;
72974;SDS011;61166;54.228;37.632;2023-09-18T12:50:28;565.03;;;197.85;;
72974;SDS011;61166;54.228;37.632;2023-09-18T12:55:37;482.77;;;166.45;;
72974;SDS011;61166;54.228;37.632;2023-09-18T12:58:03;478.23;;;163.20;;
72974;SDS011;61166;54.228;37.632;2023-09-18T13:00:30;459.70;;;157.20;;
72974;SDS011;61166;54.228;37.632;2023-09-18T13:02:56;452.50;;;155.55;;
72974;SDS011;61166;54.228;37.632;2023-09-18T13:05:23;456.17;;;156.10;;
72974;SDS011;61166;54.228;37.632;2023-09-18T13:07:50;453.25;;;155.23;;
72974;SDS011;61166;54.228;37.632;2023-09-18T13:10:16;452.50;;;154.80;;
72974;SDS011;61166;54.228;37.632;2023-09-18T13:12:47;446.30;;;152.93;;
72974;SDS011;61166;54.228;37.632;2023-09-18T13:15:29;440.13;;;151.35;;
72974;SDS011;61166;54.228;37.632;2023-09-18T13:17:59;442.17;;;152.63;;
72974;SDS011;61166;54.228;37.632;2023-09-18T13:20:26;438.50;;;150.50;;
72974;SDS011;61166;54.228;37.632;2023-09-18T13:22:54;436.20;;;150.85;;
72974;SDS011;61166;54.228;37.632;2023-09-18T13:25:24;465.83;;;158.20;;
72974;SDS011;61166;54.228;37.632;2023-09-18T13:27:52;483.25;;;165.10;;
72974;SDS011;61166;54.228;37.632;2023-09-18T13:30:18;488.20;;;167.20;;
72974;SDS011;61166;54.228;37.632;2023-09-18T13:32:45;478.05;;;164.30;;
72974;SDS011;61166;54.228;37.632;2023-09-18T13:35:12;470.45;;;160.07;;
72974;SDS011;61166;54.228;37.632;2023-09-18T13:37:38;479.93;;;163.20;;
72974;SDS011;61166;54.228;37.632;2023-09-18T13:40:05;474.08;;;160.55;;
72974;SDS011;61166;54.228;37.632;2023-09-18T13:42:33;493.42;;;169.50;;
72974;SDS011;61166;54.228;37.632;2023-09-18T13:44:59;517.10;;;179.45;;
72974;SDS011;61166;54.228;37.632;2023-09-18T13:47:26;491.58;;;169.43;;
72974;SDS011;61166;54.228;37.632;2023-09-18T13:49:53;493.87;;;170.43;;
72974;SDS011;61166;54.228;37.632;2023-09-18T13:52:20;469.08;;;159.60;;
72974;SDS011;61166;54.228;37.632;2023-09-18T13:54:46;368.85;;;136.98;;